Terminal Aerodrome Forecast
Issued by NWS

Home | Current Version | Previous Version | Text Only | Print | Product List | Glossary On
Versions: 1 2 3 4 5 6 7 8 9 10 11 12 13 14 15 16 17 18
000
FTUS43 KJKL 021100
TAFSJS
TAF
KSJS 021120Z 0212/0312 24006KT P6SM SCT050 BKN250
     FM022200 25006KT P6SM VCTS BKN040CB
     FM030100 VRB03KT P6SM SCT050
     FM030800 00000KT 1/4SM FG OVC002=

USA.gov is the U.S. government's official web portal to all federal, state and local government web resources and services.